createdAt,value
2022-09-30T00:01:11.241Z,70.30
2022-09-30T00:03:38.843Z,70.29
2022-09-30T00:06:09.106Z,70.48
2022-09-30T00:08:39.001Z,70.98
2022-09-30T00:11:09.023Z,70.91
2022-09-30T00:13:39.141Z,70.94
2022-09-30T00:16:07.951Z,70.87
2022-09-30T00:18:36.405Z,71.17
2022-09-30T00:21:04.267Z,71.01
2022-09-30T00:23:32.352Z,71.03
2022-09-30T00:26:03.640Z,71.03
2022-09-30T00:28:31.549Z,71.04
2022-09-30T00:31:00.377Z,71.29
2022-09-30T00:33:28.109Z,71.34
2022-09-30T00:35:55.855Z,71.40
2022-09-30T00:38:23.484Z,71.59
2022-09-30T00:40:51.597Z,71.28
2022-09-30T00:43:39.752Z,71.58
2022-09-30T00:46:14.690Z,71.21
2022-09-30T00:48:42.467Z,71.71
2022-09-30T00:51:10.438Z,71.60
2022-09-30T00:53:46.298Z,71.89
2022-09-30T00:56:18.127Z,72.00
2022-09-30T00:59:04.469Z,71.99
2022-09-30T01:01:32.758Z,72.05
2022-09-30T01:04:03.126Z,72.10
2022-09-30T01:06:30.916Z,72.13
2022-09-30T01:08:59.610Z,71.91
2022-09-30T01:11:29.325Z,71.87
2022-09-30T01:14:02.387Z,71.80
2022-09-30T01:16:54.544Z,72.13
2022-09-30T01:20:08.697Z,72.16
2022-09-30T01:22:45.163Z,72.36
2022-09-30T01:25:40.147Z,74.13
2022-09-30T01:28:34.537Z,72.94
2022-09-30T01:31:14.269Z,73.00
2022-09-30T01:33:51.936Z,73.08
2022-09-30T01:36:29.395Z,73.15
2022-09-30T01:39:08.124Z,73.79
2022-09-30T01:41:43.990Z,73.82
2022-09-30T01:44:17.525Z,72.96
2022-09-30T01:46:53.465Z,72.74
2022-09-30T01:49:28.324Z,72.69
2022-09-30T01:52:02.891Z,73.01
2022-09-30T01:54:39.046Z,72.81
2022-09-30T01:57:11.644Z,73.05
2022-09-30T01:59:46.376Z,72.16
2022-09-30T02:02:19.629Z,72.51
2022-09-30T02:04:53.162Z,72.19
2022-09-30T02:07:25.994Z,72.25
2022-09-30T02:09:55.697Z,73.03
2022-09-30T02:12:28.628Z,72.26
2022-09-30T02:15:02.337Z,72.80
2022-09-30T02:17:35.752Z,74.84
2022-09-30T02:20:07.223Z,72.86
2022-09-30T02:22:44.613Z,73.26
2022-09-30T02:25:20.204Z,73.07
2022-09-30T02:27:51.672Z,73.26
2022-09-30T02:30:20.140Z,72.54
2022-09-30T02:32:52.806Z,72.91
2022-09-30T02:35:26.770Z,72.74
2022-09-30T02:37:59.017Z,72.22
2022-09-30T02:40:32.705Z,72.40
2022-09-30T02:43:00.409Z,72.37
2022-09-30T02:45:32.261Z,72.39
2022-09-30T02:48:10.602Z,72.32
2022-09-30T02:50:45.876Z,72.47
2022-09-30T02:53:23.020Z,72.68
2022-09-30T02:56:14.570Z,72.71
2022-09-30T02:58:43.280Z,72.47
2022-09-30T03:01:13.404Z,72.49
2022-09-30T03:03:44.258Z,72.37
2022-09-30T03:06:12.966Z,72.27
2022-09-30T03:08:42.855Z,72.27
2022-09-30T03:11:15.781Z,72.36
2022-09-30T03:14:03.902Z,72.28
2022-09-30T03:16:47.191Z,72.45
2022-09-30T03:19:34.619Z,72.98
2022-09-30T03:22:19.273Z,72.29
2022-09-30T03:25:01.266Z,72.11
2022-09-30T03:27:36.835Z,71.63
2022-09-30T03:30:08.318Z,71.32
2022-09-30T03:32:53.647Z,69.72
2022-09-30T03:35:31.991Z,69.94
2022-09-30T03:38:05.150Z,70.17
2022-09-30T03:40:42.717Z,71.06
2022-09-30T03:43:18.449Z,73.74
2022-09-30T03:45:52.630Z,72.98
2022-09-30T03:48:21.747Z,73.72
2022-09-30T03:50:50.865Z,75.09
2022-09-30T03:53:18.541Z,74.91
2022-09-30T03:55:52.337Z,73.03
2022-09-30T03:58:22.144Z,74.79
2022-09-30T04:00:52.733Z,75.86
2022-09-30T04:03:22.089Z,73.70
2022-09-30T04:05:51.225Z,73.97
2022-09-30T04:08:18.847Z,74.43
2022-09-30T04:10:46.612Z,72.42
2022-09-30T04:13:14.464Z,72.37
2022-09-30T04:15:42.212Z,71.80
2022-09-30T04:18:09.829Z,72.94
2022-09-30T04:20:39.317Z,71.89
2022-09-30T04:23:08.147Z,71.13
2022-09-30T04:25:35.622Z,71.14
2022-09-30T04:28:03.927Z,71.35
2022-09-30T04:30:33.651Z,71.29
2022-09-30T04:33:02.474Z,72.65
2022-09-30T04:35:30.260Z,73.86
2022-09-30T04:37:57.858Z,73.66
2022-09-30T04:40:26.885Z,74.27
2022-09-30T04:42:58.136Z,72.08
2022-09-30T04:45:26.489Z,73.25
2022-09-30T04:47:54.613Z,75.43
2022-09-30T04:50:22.872Z,75.81
2022-09-30T04:52:54.995Z,76.29
2022-09-30T04:55:22.830Z,74.62
2022-09-30T04:57:51.998Z,73.37
2022-09-30T05:00:20.485Z,73.11
2022-09-30T05:02:48.005Z,74.19
2022-09-30T05:05:15.623Z,76.15
2022-09-30T05:07:43.174Z,76.71
2022-09-30T05:10:11.441Z,75.85
2022-09-30T05:12:40.915Z,76.66
2022-09-30T05:15:10.707Z,76.17
2022-09-30T05:17:38.289Z,76.01
2022-09-30T05:20:10.649Z,76.73
2022-09-30T05:22:38.270Z,77.26
2022-09-30T05:25:06.602Z,76.82
2022-09-30T05:27:34.053Z,77.09
2022-09-30T05:30:01.557Z,77.04
2022-09-30T05:32:31.638Z,77.01
2022-09-30T05:34:59.114Z,76.65
2022-09-30T05:37:26.580Z,77.57
2022-09-30T05:39:55.175Z,76.49
2022-09-30T05:42:22.764Z,74.18
2022-09-30T05:44:50.267Z,75.84
2022-09-30T05:47:17.748Z,77.40
2022-09-30T05:49:46.712Z,76.88
2022-09-30T05:52:14.928Z,77.56
2022-09-30T05:54:42.458Z,78.87
2022-09-30T05:57:10.219Z,79.28
2022-09-30T05:59:38.576Z,79.10
2022-09-30T06:02:06.176Z,77.28
2022-09-30T06:04:33.794Z,77.51
2022-09-30T06:07:05.914Z,77.36
2022-09-30T06:09:36.027Z,77.30
2022-09-30T06:12:03.586Z,77.18
2022-09-30T06:14:31.137Z,77.21
2022-09-30T06:17:00.345Z,77.40
2022-09-30T06:19:30.264Z,76.60
2022-09-30T06:21:58.017Z,77.53
2022-09-30T06:24:27.325Z,78.59
2022-09-30T06:26:54.838Z,78.10
2022-09-30T06:29:22.443Z,78.21
2022-09-30T06:31:50.092Z,78.44
2022-09-30T06:34:17.649Z,77.91
2022-09-30T06:36:45.116Z,77.69
2022-09-30T06:39:13.919Z,77.79
2022-09-30T06:41:44.009Z,77.29
2022-09-30T06:44:12.496Z,75.71
2022-09-30T06:46:52.676Z,76.57
2022-09-30T06:49:21.370Z,77.03
2022-09-30T06:51:51.299Z,77.32
2022-09-30T06:54:19.346Z,76.60
2022-09-30T06:56:49.684Z,76.34
2022-09-30T06:59:17.797Z,76.45
2022-09-30T07:01:46.212Z,75.09
2022-09-30T07:04:14.098Z,75.85
2022-09-30T07:06:41.775Z,74.19
2022-09-30T07:09:10.521Z,72.63
2022-09-30T07:11:38.627Z,73.15
2022-09-30T07:14:07.820Z,73.78
2022-09-30T07:16:35.482Z,74.39
2022-09-30T07:19:04.009Z,71.81
2022-09-30T07:21:32.183Z,72.26
2022-09-30T07:23:59.858Z,71.17
2022-09-30T07:26:28.746Z,70.24
2022-09-30T07:28:56.272Z,68.61
2022-09-30T07:31:32.964Z,68.27
2022-09-30T07:34:02.566Z,68.48
2022-09-30T07:36:33.419Z,67.03
2022-09-30T07:39:05.661Z,66.51
2022-09-30T07:41:35.746Z,66.47
2022-09-30T07:44:06.079Z,65.59
2022-09-30T07:46:38.669Z,64.15
2022-09-30T07:49:08.789Z,64.21
2022-09-30T07:51:38.906Z,62.75
2022-09-30T07:54:09.081Z,62.11
2022-09-30T07:57:05.103Z,62.06
2022-09-30T07:59:27.159Z,61.79
2022-09-30T08:01:56.172Z,61.26
2022-09-30T08:04:25.375Z,60.73
2022-09-30T08:06:56.017Z,61.44
2022-09-30T08:09:25.740Z,61.98
2022-09-30T08:11:53.608Z,61.48
2022-09-30T08:14:23.513Z,61.67
2022-09-30T08:16:51.845Z,61.54
2022-09-30T08:19:22.682Z,61.45
2022-09-30T08:21:51.060Z,61.60
2022-09-30T08:24:18.810Z,61.72
2022-09-30T08:26:46.623Z,61.62
2022-09-30T08:29:20.451Z,62.15
2022-09-30T08:31:52.852Z,62.75
2022-09-30T08:34:21.912Z,62.84
2022-09-30T08:36:49.486Z,61.42
2022-09-30T08:39:17.149Z,61.13
2022-09-30T08:42:13.899Z,62.39
2022-09-30T08:44:49.922Z,60.61
2022-09-30T08:47:32.830Z,59.97
2022-09-30T08:50:10.115Z,60.66
2022-09-30T08:52:48.948Z,60.91
2022-09-30T08:55:22.865Z,61.41
2022-09-30T08:57:52.520Z,60.99
2022-09-30T09:00:22.616Z,60.52
2022-09-30T09:02:53.708Z,60.85
2022-09-30T09:05:34.965Z,61.46
2022-09-30T09:08:08.708Z,61.25
2022-09-30T09:10:44.542Z,61.90
2022-09-30T09:13:29.673Z,63.60
2022-09-30T09:16:05.105Z,65.09
2022-09-30T09:18:42.917Z,64.62
2022-09-30T09:21:22.693Z,62.08
2022-09-30T09:23:52.514Z,61.90
2022-09-30T09:26:20.130Z,61.96
2022-09-30T09:29:01.027Z,61.27
2022-09-30T09:31:28.677Z,61.62
2022-09-30T09:34:00.785Z,62.52
2022-09-30T09:36:46.765Z,60.96
2022-09-30T09:39:32.678Z,60.09
2022-09-30T09:42:10.170Z,60.14
2022-09-30T09:44:48.158Z,63.00
2022-09-30T09:47:17.037Z,61.86
2022-09-30T09:49:46.198Z,61.65
2022-09-30T09:52:39.854Z,59.87
2022-09-30T09:55:11.265Z,60.09
2022-09-30T09:57:40.210Z,59.12
2022-09-30T10:00:27.489Z,62.09
2022-09-30T10:03:01.510Z,60.47
2022-09-30T10:05:30.521Z,59.91
2022-09-30T10:08:13.334Z,59.15
2022-09-30T10:10:48.564Z,62.53
2022-09-30T10:13:21.638Z,60.03
2022-09-30T10:15:50.117Z,59.19
2022-09-30T10:18:21.159Z,58.65
2022-09-30T10:20:54.397Z,58.15
2022-09-30T10:23:27.927Z,60.05
2022-09-30T10:25:57.561Z,58.92
2022-09-30T10:28:28.076Z,57.47
2022-09-30T10:31:03.048Z,58.63
2022-09-30T10:33:35.183Z,57.21
2022-09-30T10:36:16.227Z,56.61
2022-09-30T10:38:58.194Z,55.73
2022-09-30T10:41:30.131Z,56.20
2022-09-30T10:44:00.920Z,55.77
2022-09-30T10:46:31.601Z,55.32
2022-09-30T10:49:00.380Z,55.62
2022-09-30T10:51:36.075Z,57.79
2022-09-30T10:54:06.479Z,55.29
2022-09-30T10:56:45.539Z,54.55
2022-09-30T10:59:20.704Z,54.44
2022-09-30T11:01:57.342Z,54.94
2022-09-30T11:04:33.424Z,53.64
2022-09-30T11:07:13.262Z,53.11
2022-09-30T11:09:48.726Z,53.03
2022-09-30T11:12:21.973Z,53.93
2022-09-30T11:14:58.544Z,53.97
2022-09-30T11:17:34.930Z,53.66
2022-09-30T11:20:13.522Z,52.85
2022-09-30T11:22:47.056Z,53.60
2022-09-30T11:25:20.681Z,53.35
2022-09-30T11:27:59.689Z,54.76
2022-09-30T11:30:37.145Z,52.92
2022-09-30T11:33:18.760Z,52.65
2022-09-30T11:35:55.407Z,52.43
2022-09-30T11:38:46.709Z,51.08
2022-09-30T11:41:23.176Z,50.91
2022-09-30T11:44:00.129Z,53.61
2022-09-30T11:46:47.365Z,51.60
2022-09-30T11:49:36.349Z,51.43
2022-09-30T11:52:14.665Z,51.51
2022-09-30T11:55:00.157Z,51.00
2022-09-30T11:57:35.801Z,49.95
2022-09-30T12:00:10.699Z,48.98
2022-09-30T12:02:40.816Z,48.47
2022-09-30T12:05:12.879Z,47.06
2022-09-30T12:07:47.030Z,46.57
2022-09-30T12:10:24.229Z,46.00
2022-09-30T12:12:57.389Z,45.95
2022-09-30T12:15:26.891Z,46.92
2022-09-30T12:17:59.063Z,45.66
2022-09-30T12:20:31.341Z,47.02
2022-09-30T12:23:06.329Z,45.78
2022-09-30T12:25:40.444Z,45.48
2022-09-30T12:28:35.353Z,44.32
2022-09-30T12:31:20.258Z,45.91
2022-09-30T12:34:00.058Z,44.66
2022-09-30T12:36:40.953Z,44.81
2022-09-30T12:39:38.484Z,45.83
2022-09-30T12:42:38.717Z,45.76
2022-09-30T12:45:32.913Z,47.30
2022-09-30T12:48:05.069Z,46.82
2022-09-30T12:50:40.735Z,46.96
2022-09-30T12:53:16.737Z,49.84
2022-09-30T12:55:44.827Z,46.81
2022-09-30T12:58:22.061Z,45.43
2022-09-30T13:01:12.563Z,45.48
2022-09-30T13:03:52.546Z,46.95
2022-09-30T13:06:22.172Z,47.49
2022-09-30T13:09:08.051Z,47.11
2022-09-30T13:11:41.372Z,48.10
2022-09-30T13:14:26.006Z,46.87
2022-09-30T13:17:19.969Z,46.37
2022-09-30T13:19:49.563Z,46.64
2022-09-30T13:22:53.753Z,46.63
2022-09-30T13:25:21.605Z,47.69
2022-09-30T13:27:53.390Z,46.44
2022-09-30T13:30:37.347Z,47.18
2022-09-30T13:33:42.761Z,46.75
2022-09-30T13:36:25.504Z,47.27
2022-09-30T13:39:07.953Z,47.67
2022-09-30T13:41:38.577Z,48.08
2022-09-30T13:44:10.456Z,47.23
2022-09-30T13:46:43.728Z,48.04
2022-09-30T13:49:18.720Z,50.43
2022-09-30T13:51:47.088Z,50.14
2022-09-30T13:54:31.781Z,48.57
2022-09-30T13:57:00.836Z,48.25
2022-09-30T13:59:49.123Z,49.20
2022-09-30T14:02:38.084Z,50.84
2022-09-30T14:05:35.093Z,49.33
2022-09-30T14:08:41.195Z,48.17
2022-09-30T14:11:28.652Z,48.20
2022-09-30T14:14:12.932Z,48.25
2022-09-30T14:17:05.700Z,48.26
2022-09-30T14:20:04.994Z,47.92
2022-09-30T14:22:37.341Z,47.74
2022-09-30T14:25:13.716Z,48.34
2022-09-30T14:27:50.729Z,47.09
2022-09-30T14:30:21.269Z,48.67
2022-09-30T14:32:52.045Z,46.23
2022-09-30T14:35:22.084Z,45.70
2022-09-30T14:37:54.263Z,45.70
2022-09-30T14:40:27.020Z,46.22
2022-09-30T14:42:59.275Z,45.85
2022-09-30T14:45:29.724Z,48.05
2022-09-30T14:48:01.628Z,47.56
2022-09-30T14:50:41.785Z,48.20
2022-09-30T14:53:27.939Z,46.83
2022-09-30T14:55:58.135Z,47.01
2022-09-30T14:58:30.443Z,48.44
2022-09-30T15:01:06.063Z,46.02
2022-09-30T15:03:36.494Z,46.41
2022-09-30T15:06:08.501Z,46.55
2022-09-30T15:08:38.109Z,46.02
2022-09-30T15:11:06.386Z,45.58
2022-09-30T15:13:36.945Z,45.80
2022-09-30T15:16:05.318Z,45.54
2022-09-30T16:32:29.669Z,52.24
2022-09-30T16:35:20.124Z,50.86
2022-09-30T16:38:29.746Z,50.51
2022-09-30T16:41:25.433Z,50.49
2022-09-30T16:47:22.431Z,52.57
2022-09-30T16:49:54.763Z,53.38
2022-09-30T16:55:27.265Z,54.33
2022-09-30T16:58:05.561Z,54.08
2022-09-30T17:00:33.985Z,54.83
2022-09-30T17:03:03.269Z,54.47
2022-09-30T17:05:33.569Z,54.72
2022-09-30T17:08:09.439Z,55.26
2022-09-30T17:11:18.303Z,55.70
2022-09-30T17:16:37.409Z,56.42
2022-09-30T17:19:06.490Z,56.61
2022-09-30T17:21:34.952Z,56.66
2022-09-30T17:24:07.958Z,57.18
2022-09-30T17:26:40.323Z,57.63
2022-09-30T17:31:59.463Z,58.09
2022-09-30T17:34:28.113Z,58.36
2022-09-30T17:36:58.980Z,58.81
2022-09-30T17:39:27.991Z,59.42
2022-09-30T17:42:13.360Z,59.61
2022-09-30T17:44:48.551Z,60.28
2022-09-30T17:47:23.838Z,60.27
2022-09-30T18:01:36.726Z,61.87
2022-09-30T18:04:07.715Z,62.11
2022-09-30T18:06:38.123Z,62.43
2022-09-30T18:09:15.582Z,62.39
2022-09-30T18:11:47.188Z,62.57
2022-09-30T18:17:03.978Z,62.81
2022-09-30T18:19:35.917Z,63.18
2022-09-30T18:22:05.537Z,63.12
2022-09-30T18:24:51.762Z,63.32
2022-09-30T18:27:23.206Z,63.25
2022-09-30T18:29:52.914Z,63.95
2022-09-30T18:32:23.478Z,63.94
2022-09-30T18:35:00.910Z,63.85
2022-09-30T18:37:34.405Z,64.07
2022-09-30T18:40:08.373Z,64.24
2022-09-30T18:42:50.405Z,64.59
2022-09-30T18:45:24.237Z,64.50
2022-09-30T18:47:58.011Z,64.86
2022-09-30T18:50:32.044Z,64.65
2022-09-30T18:53:09.111Z,64.82
2022-09-30T18:55:44.580Z,65.03
2022-09-30T18:58:16.433Z,64.84
2022-09-30T19:00:46.494Z,64.86
2022-09-30T19:03:18.296Z,66.09
2022-09-30T19:05:49.729Z,66.36
2022-09-30T19:08:18.206Z,65.50
2022-09-30T19:10:48.476Z,65.43
2022-09-30T19:13:18.059Z,65.28
2022-09-30T19:15:51.583Z,65.08
2022-09-30T19:18:25.478Z,65.34
2022-09-30T19:20:56.322Z,65.04
2022-09-30T19:23:27.117Z,64.98
2022-09-30T19:26:03.827Z,65.34
2022-09-30T19:36:49.478Z,65.28
2022-09-30T19:39:31.497Z,64.78
2022-09-30T19:42:19.047Z,64.48
2022-09-30T19:44:50.353Z,64.84
2022-09-30T19:47:24.601Z,64.68
2022-09-30T19:50:01.332Z,64.69
2022-09-30T19:55:18.335Z,64.95
2022-09-30T19:57:48.081Z,65.08
2022-09-30T20:00:18.051Z,65.02
2022-09-30T20:02:48.178Z,64.78
2022-09-30T20:05:22.123Z,65.11
2022-09-30T20:07:55.032Z,64.79
2022-09-30T20:10:26.467Z,65.23
2022-09-30T20:12:58.883Z,65.18
2022-09-30T20:15:46.313Z,65.09
2022-09-30T20:18:23.627Z,65.09
2022-09-30T20:20:54.092Z,64.96
2022-09-30T20:23:23.249Z,65.04
2022-09-30T20:25:52.718Z,65.15
2022-09-30T20:28:21.342Z,65.25
2022-09-30T20:30:49.529Z,65.28
2022-09-30T20:33:19.089Z,65.26
2022-09-30T20:35:47.006Z,65.30
2022-09-30T20:38:17.207Z,65.31
2022-09-30T20:40:46.184Z,65.47
2022-09-30T20:43:13.741Z,65.54
2022-09-30T20:45:41.339Z,66.13
2022-09-30T20:48:09.437Z,66.50
2022-09-30T20:50:43.044Z,68.79
2022-09-30T20:53:13.923Z,67.75
2022-09-30T20:55:44.287Z,68.54
2022-09-30T20:58:13.874Z,66.85
2022-09-30T21:00:42.656Z,68.57
2022-09-30T21:03:13.173Z,68.32
2022-09-30T21:05:41.217Z,68.18
2022-09-30T21:08:08.776Z,68.32
2022-09-30T21:10:38.712Z,69.27
2022-09-30T21:13:11.276Z,68.25
2022-09-30T21:15:40.189Z,66.17
2022-09-30T21:18:08.022Z,67.30
2022-09-30T21:20:35.929Z,68.37
2022-09-30T21:23:03.772Z,67.85
2022-09-30T21:25:32.464Z,67.31
2022-09-30T21:28:00.152Z,68.02
2022-09-30T21:30:28.208Z,67.02
2022-09-30T21:32:57.259Z,67.56
2022-09-30T21:35:24.873Z,68.35
2022-09-30T21:37:52.384Z,66.24
2022-09-30T21:40:19.924Z,66.95
2022-09-30T21:42:47.531Z,66.99
2022-09-30T21:45:15.291Z,65.83
2022-09-30T21:47:42.846Z,65.47
2022-09-30T21:50:12.342Z,65.21
2022-09-30T21:52:39.879Z,65.32
2022-09-30T21:55:08.100Z,65.01
2022-09-30T21:57:35.658Z,65.09
2022-09-30T22:00:03.552Z,65.26
2022-09-30T22:02:31.449Z,65.12
2022-09-30T22:04:58.990Z,65.00
2022-09-30T22:07:27.879Z,65.12
2022-09-30T22:09:55.460Z,65.29
2022-09-30T22:12:23.268Z,65.39
2022-09-30T22:14:51.066Z,65.42
2022-09-30T22:17:18.589Z,65.54
2022-09-30T22:19:46.215Z,65.77
2022-09-30T22:22:13.733Z,66.01
2022-09-30T22:24:42.777Z,65.60
2022-09-30T22:27:10.973Z,65.86
2022-09-30T22:29:38.732Z,65.90
2022-09-30T22:32:06.620Z,66.04
2022-09-30T22:34:52.013Z,65.75
2022-09-30T22:37:37.552Z,65.87
2022-09-30T22:40:07.561Z,65.87
2022-09-30T22:42:35.773Z,66.11
2022-09-30T22:45:03.488Z,66.39
2022-09-30T22:47:31.626Z,66.23
2022-09-30T22:49:59.276Z,66.32
2022-09-30T22:52:26.845Z,66.18
2022-09-30T22:54:54.331Z,66.48
2022-09-30T22:57:23.896Z,66.61
2022-09-30T22:59:52.779Z,66.53
2022-09-30T23:02:21.149Z,66.37
2022-09-30T23:04:48.785Z,66.65
2022-09-30T23:07:16.315Z,66.59
2022-09-30T23:09:43.831Z,66.55
2022-09-30T23:12:12.143Z,66.63
2022-09-30T23:14:40.943Z,66.96
2022-09-30T23:17:08.494Z,67.26
2022-09-30T23:19:36.010Z,67.49
2022-09-30T23:22:03.754Z,67.68
2022-09-30T23:24:31.351Z,67.37
2022-09-30T23:26:59.987Z,67.38
2022-09-30T23:29:27.485Z,67.30
2022-09-30T23:31:56.362Z,67.49
2022-09-30T23:34:24.279Z,67.75
2022-09-30T23:36:51.777Z,67.71
2022-09-30T23:39:20.705Z,67.43
2022-09-30T23:41:49.774Z,67.48
2022-09-30T23:44:18.675Z,67.52
2022-09-30T23:47:00.547Z,68.49
2022-09-30T23:49:32.305Z,70.23
2022-09-30T23:51:59.769Z,68.68
2022-09-30T23:54:27.264Z,68.20
2022-09-30T23:56:54.853Z,68.24
2022-09-30T23:59:22.393Z,68.10
